Time;durP1;ratioP1;P1;durP2;ratioP2;P2;SDS_P1;SDS_P2;PMS_P1;PMS_P2;Temp;Humidity;BMP_temperature;BMP_pressure;BME280_temperature;BME280_humidity;BME280_pressure;Samples;Min_cycle;Max_cycle;Signal;HPM_P1;HPM_P2
2021/12/23 00:01:22;;;;;;;8.33;4.63;;;;;;;-145.06;0.00;60892.56;4808760;28;20487;-88
2021/12/23 00:04:01;;;;;;;6.53;3.67;;;;;;;-145.06;0.00;60892.56;4818912;28;20281;-89
2021/12/23 00:06:43;;;;;;;7.55;4.40;;;;;;;-145.06;0.00;60892.56;4818132;28;20277;-88
2021/12/23 00:09:30;;;;;;;6.15;4.05;;;;;;;21.08;0.00;60892.56;4810335;28;20034;-88
2021/12/23 00:12:09;;;;;;;5.97;4.22;;;;;;;-145.06;0.00;60892.56;4818039;28;20113;-89
2021/12/23 00:14:51;;;;;;;5.95;4.13;;;;;;;-145.06;0.00;60892.56;4817558;28;20034;-89
2021/12/23 00:17:54;;;;;;;5.50;3.85;;;;;;;0.28;0.00;60892.56;4816411;28;20035;-88
2021/12/23 00:26:03;;;;;;;7.18;4.32;;;;;;;0.29;0.00;60892.56;4823392;28;20026;-88
2021/12/23 00:28:42;;;;;;;;;;;;;;;0.29;0.00;60892.56;4818287;28;20057;-87
2021/12/23 00:31:22;;;;;;;7.23;5.00;;;;;;;-145.06;0.00;60892.56;4826549;28;19922;-88
2021/12/23 00:34:01;;;;;;;7.47;4.90;;;;;;;-145.06;0.00;60892.56;4822397;28;20042;-88
2021/12/23 00:36:43;;;;;;;6.90;4.53;;;;;;;0.28;0.00;60892.56;4823928;28;20038;-88
2021/12/23 00:39:22;;;;;;;8.15;4.75;;;;;;;21.08;0.00;60892.56;4819125;28;20282;-87
2021/12/23 00:42:07;;;;;;;7.20;4.50;;;;;;;0.27;0.00;60892.56;4822569;28;20038;-87
2021/12/23 00:44:47;;;;;;;7.38;4.68;;;;;;;0.27;0.00;60892.56;4828615;28;20018;-87
2021/12/23 00:47:26;;;;;;;8.30;4.68;;;;;;;187.52;0.00;60892.56;4810782;28;20022;-87
2021/12/23 00:50:05;;;;;;;7.32;4.88;;;;;;;-145.06;0.00;60892.56;4821687;28;20042;-88
2021/12/23 00:52:54;;;;;;;6.55;4.50;;;;;;;0.27;0.00;60892.56;4822133;28;20038;-88
2021/12/23 00:55:33;;;;;;;5.95;4.00;;;;;;;0.26;0.00;60892.56;4814558;28;20018;-88
2021/12/23 00:58:12;;;;;;;6.80;4.45;;;;;;;-145.06;0.00;60892.56;4821906;28;20026;-87
2021/12/23 01:00:51;;;;;;;6.13;4.07;;;;;;;-145.06;0.00;60892.56;4820068;28;20042;-88
2021/12/23 01:03:30;;;;;;;7.05;4.40;;;;;;;-145.06;0.00;60892.56;4816766;28;20061;-88
2021/12/23 01:06:09;;;;;;;5.78;4.20;;;;;;;-145.06;0.00;60892.56;4820811;28;20050;-88
2021/12/23 01:08:49;;;;;;;7.97;5.15;;;;;;;-145.06;0.00;60892.56;4811443;28;20023;-88
2021/12/23 01:11:28;;;;;;;6.97;4.75;;;;;;;-145.06;0.00;60892.56;4804661;28;20042;-88
2021/12/23 01:14:27;;;;;;;6.93;4.35;;;;;;;-145.06;0.00;60892.56;4820316;28;20065;-88
2021/12/23 01:17:30;;;;;;;7.10;4.90;;;;;;;-145.06;0.00;60892.56;4813728;28;20038;-87
2021/12/23 01:20:10;;;;;;;7.05;4.50;;;;;;;-145.06;0.00;60892.56;4819557;28;20038;-87
2021/12/23 01:22:49;;;;;;;7.10;4.70;;;;;;;-145.06;0.00;60892.56;4820088;28;20030;-87
2021/12/23 01:25:29;;;;;;;6.93;4.70;;;;;;;-145.06;0.00;60892.56;4821931;28;20496;-88
2021/12/23 01:28:08;;;;;;;7.90;4.72;;;;;;;-145.06;0.00;60892.56;4821953;28;20105;-90
2021/12/23 01:30:48;;;;;;;6.40;4.28;;;;;;;-145.06;0.00;60892.56;4809417;28;20110;-90
2021/12/23 01:33:27;;;;;;;8.57;5.28;;;;;;;-145.06;0.00;60892.56;4818556;28;20038;-87
2021/12/23 01:36:06;;;;;;;6.53;4.20;;;;;;;-145.06;0.00;60892.56;4818903;28;20034;-86
2021/12/23 01:38:45;;;;;;;6.10;4.20;;;;;;;-145.06;0.00;60892.56;4819022;28;20038;-87
2021/12/23 01:41:26;;;;;;;6.43;4.60;;;;;;;21.08;0.00;60892.56;4820838;28;20042;-88
2021/12/23 01:44:05;;;;;;;7.50;4.78;;;;;;;-145.06;0.00;60892.56;4819023;28;20377;-87
2021/12/23 01:46:44;;;;;;;7.18;4.60;;;;;;;-145.06;0.00;60892.56;4821879;28;20038;-86
2021/12/23 01:49:23;;;;;;;6.72;4.53;;;;;;;-145.06;0.00;60892.56;4816507;28;20035;-88
2021/12/23 01:52:03;;;;;;;5.27;3.83;;;;;;;-145.06;0.00;60892.56;4819652;28;20614;-88
2021/12/23 01:54:42;;;;;;;6.93;4.15;;;;;;;-145.06;0.00;60892.56;4804897;28;20034;-86
2021/12/23 01:57:21;;;;;;;6.32;3.90;;;;;;;-145.06;0.00;60892.56;4819231;28;20030;-87
2021/12/23 02:00:04;;;;;;;5.57;3.72;;;;;;;-145.06;0.00;60892.56;4819028;28;20113;-87
2021/12/23 02:02:43;;;;;;;6.03;4.03;;;;;;;-145.06;0.00;60892.56;4818388;28;20381;-89
2021/12/23 02:05:23;;;;;;;4.95;3.83;;;;;;;-145.06;0.00;60892.56;4814366;28;20034;-87
2021/12/23 02:08:03;;;;;;;5.93;4.20;;;;;;;-145.06;0.00;60892.56;4830602;28;20058;-89
2021/12/23 02:10:44;;;;;;;6.47;4.15;;;;;;;-145.06;0.00;60892.56;4816112;28;20070;-87
2021/12/23 02:13:22;;;;;;;6.38;4.25;;;;;;;-145.06;0.00;60892.56;4818711;28;20038;-88
2021/12/23 02:16:03;;;;;;;5.63;3.80;;;;;;;-145.06;0.00;60892.56;4804868;28;20110;-87
2021/12/23 02:18:42;;;;;;;5.90;4.00;;;;;;;10.68;0.00;60892.56;4814771;28;20393;-87
2021/12/23 02:21:21;;;;;;;6.53;4.35;;;;;;;-145.06;0.00;60892.56;4811684;28;20043;-88
2021/12/23 02:24:00;;;;;;;7.38;3.97;;;;;;;-145.06;0.00;60892.56;4816418;28;20046;-88
2021/12/23 02:26:40;;;;;;;6.30;3.80;;;;;;;-145.06;0.00;60892.56;4810966;28;20034;-88
2021/12/23 02:29:19;;;;;;;4.93;3.70;;;;;;;-145.06;0.00;60892.56;4818257;28;20070;-88
2021/12/23 02:31:58;;;;;;;4.32;3.20;;;;;;;-145.06;0.00;60892.56;4818746;28;20082;-87
2021/12/23 02:34:37;;;;;;;5.75;3.80;;;;;;;-145.06;0.00;60892.56;4827906;28;20042;-88
2021/12/23 02:37:16;;;;;;;5.32;3.67;;;;;;;-145.06;0.00;60892.56;4818484;28;20030;-88
2021/12/23 02:39:55;;;;;;;6.07;3.90;;;;;;;-145.06;0.00;60892.56;4818546;28;20042;-89
2021/12/23 02:42:34;;;;;;;5.27;3.50;;;;;;;-145.06;0.00;60892.56;4817638;28;20377;-88
2021/12/23 02:45:13;;;;;;;6.70;4.27;;;;;;;-145.06;0.00;60892.56;4819290;28;20034;-89
2021/12/23 02:47:52;;;;;;;5.07;3.60;;;;;;;-145.06;0.00;60892.56;4816806;28;20370;-87
2021/12/23 02:50:32;;;;;;;5.55;3.80;;;;;;;-145.06;0.00;60892.56;4817088;28;20298;-89
2021/12/23 02:53:11;;;;;;;5.10;3.47;;;;;;;-145.06;0.00;60892.56;4816972;28;20069;-88
2021/12/23 02:55:54;;;;;;;5.32;3.67;;;;;;;-145.06;0.00;60892.56;4815956;28;20046;-88
2021/12/23 02:58:33;;;;;;;6.20;3.78;;;;;;;-145.06;0.00;60892.56;4816035;28;20034;-88
2021/12/23 03:01:16;;;;;;;5.72;3.88;;;;;;;-145.06;0.00;60892.56;4816903;28;20038;-88
2021/12/23 03:03:55;;;;;;;6.47;3.75;;;;;;;-145.06;0.00;60892.56;4814616;28;20038;-88
2021/12/23 03:06:33;;;;;;;4.13;2.97;;;;;;;-145.06;0.00;60892.56;4818565;28;20031;-88
2021/12/23 03:09:13;;;;;;;5.65;3.85;;;;;;;-145.06;0.00;60892.56;4819670;28;20348;-87
2021/12/23 03:11:52;;;;;;;5.30;3.67;;;;;;;-145.06;0.00;60892.56;4817550;28;20046;-88
2021/12/23 03:14:31;;;;;;;5.67;3.60;;;;;;;-145.06;0.00;60892.56;4812554;28;20038;-88
2021/12/23 03:17:10;;;;;;;8.03;4.20;;;;;;;-145.06;0.00;60892.56;4818371;28;20377;-88
2021/12/23 03:19:48;;;;;;;5.60;3.63;;;;;;;-145.06;0.00;60892.56;4817664;28;20061;-88
2021/12/23 03:22:27;;;;;;;6.32;3.50;;;;;;;-145.06;0.00;60892.56;4818339;28;20369;-88
2021/12/23 03:25:07;;;;;;;5.28;3.45;;;;;;;-145.06;0.00;60892.56;4818110;28;20030;-88
2021/12/23 03:27:46;;;;;;;6.32;3.85;;;;;;;-145.06;0.00;60892.56;4817860;28;20030;-88
2021/12/23 03:30:25;;;;;;;5.80;4.03;;;;;;;-145.06;0.00;60892.56;4818967;28;20441;-87
2021/12/23 03:33:05;;;;;;;5.97;3.83;;;;;;;-145.06;0.00;60892.56;4809806;28;20042;-88
2021/12/23 03:35:46;;;;;;;5.65;3.80;;;;;;;-145.06;0.00;60892.56;4815092;28;20034;-88
2021/12/23 03:38:26;;;;;;;6.25;3.63;;;;;;;-145.06;0.00;60892.56;4816685;28;20030;-88
2021/12/23 03:41:05;;;;;;;;;;;;;;;-145.06;0.00;60892.56;4817424;28;20034;-86
2021/12/23 03:43:44;;;;;;;5.73;2.90;;;;;;;-145.06;0.00;60892.56;4819494;28;20373;-88
2021/12/23 03:46:23;;;;;;;5.57;3.27;;;;;;;-145.06;0.00;60892.56;4815886;28;20265;-87
2021/12/23 03:49:02;;;;;;;4.28;3.08;;;;;;;-145.06;0.00;60892.56;4810360;28;20023;-88
2021/12/23 03:51:41;;;;;;;4.60;2.90;;;;;;;-145.06;0.00;60892.56;4804219;28;20042;-88
2021/12/23 03:54:19;;;;;;;4.90;2.90;;;;;;;0.27;0.00;60892.56;4820982;28;20270;-87
2021/12/23 03:56:58;;;;;;;4.70;2.70;;;;;;;0.29;0.00;60892.56;4821571;28;20026;-88
2021/12/23 03:59:37;;;;;;;5.32;2.97;;;;;;;-145.06;0.00;60892.56;4815496;28;20117;-88
2021/12/23 04:02:16;;;;;;;4.70;2.83;;;;;;;-145.06;0.00;60892.56;4816884;28;20129;-89
2021/12/23 04:04:55;;;;;;;4.10;2.53;;;;;;;-145.06;0.00;60892.56;4815304;28;20042;-88
2021/12/23 04:07:35;;;;;;;4.25;3.00;;;;;;;-145.06;0.00;60892.56;4803220;28;20026;-87
2021/12/23 04:10:16;;;;;;;;;;;;;;;0.29;0.00;60892.56;4818109;28;20065;-87
2021/12/23 04:12:55;;;;;;;3.58;2.65;;;;;;;-145.06;0.00;60892.56;4817580;28;19913;-89
2021/12/23 04:15:34;;;;;;;3.97;3.10;;;;;;;-145.06;0.00;60892.56;4810464;28;20030;-87
2021/12/23 04:18:13;;;;;;;3.67;2.65;;;;;;;-145.06;0.00;60892.56;4814090;28;20282;-88
2021/12/23 04:20:55;;;;;;;4.82;2.75;;;;;;;0.27;0.00;60892.56;4812503;28;20046;-88
2021/12/23 04:23:34;;;;;;;3.75;2.75;;;;;;;-145.06;0.00;60892.56;4811048;28;20038;-86
2021/12/23 04:26:13;;;;;;;3.90;2.50;;;;;;;-145.06;0.00;60892.56;4817254;28;20381;-88
2021/12/23 04:28:53;;;;;;;3.28;2.50;;;;;;;0.28;0.00;60892.56;4817001;28;20109;-87
2021/12/23 04:31:32;;;;;;;5.10;3.30;;;;;;;0.29;0.00;60892.56;4817139;28;20038;-87
2021/12/23 04:34:11;;;;;;;5.43;3.20;;;;;;;0.27;0.00;60892.56;4815077;28;20027;-89
2021/12/23 04:36:50;;;;;;;4.72;3.28;;;;;;;-145.06;0.00;60892.56;4810111;28;20034;-88
2021/12/23 04:39:29;;;;;;;4.20;2.78;;;;;;;0.29;0.00;60892.56;4818342;28;20054;-87
2021/12/23 04:42:08;;;;;;;4.33;3.00;;;;;;;187.52;0.00;60892.56;4815598;28;20062;-88
2021/12/23 04:44:46;;;;;;;4.43;2.87;;;;;;;-145.06;0.00;60892.56;4817261;28;20313;-88
2021/12/23 04:47:25;;;;;;;3.65;2.63;;;;;;;0.26;0.00;60892.56;4814201;28;20302;-88
2021/12/23 04:50:08;;;;;;;4.47;2.78;;;;;;;-145.06;0.00;60892.56;4811133;28;20042;-87
2021/12/23 04:52:47;;;;;;;5.05;3.15;;;;;;;-145.06;0.00;60892.56;4804309;28;20422;-88
2021/12/23 04:55:28;;;;;;;3.88;2.75;;;;;;;-145.06;0.00;60892.56;4813766;28;20026;-88
2021/12/23 04:58:08;;;;;;;5.20;3.08;;;;;;;187.52;0.00;60892.56;4811073;28;20031;-88
2021/12/23 05:00:48;;;;;;;5.35;3.13;;;;;;;-145.06;0.00;60892.56;4816083;28;20018;-88
2021/12/23 05:03:27;;;;;;;5.72;2.90;;;;;;;-145.06;0.00;60892.56;4815654;28;20227;-87
2021/12/23 05:06:06;;;;;;;5.53;3.22;;;;;;;-145.06;0.00;60892.56;4817589;28;20117;-88
2021/12/23 05:08:46;;;;;;;5.18;3.30;;;;;;;0.29;0.00;60892.56;4821453;28;20027;-88
2021/12/23 05:11:25;;;;;;;5.78;3.47;;;;;;;-145.06;0.00;60892.56;4823008;28;20026;-89
2021/12/23 05:14:04;;;;;;;5.17;3.30;;;;;;;-145.06;0.00;60892.56;4817498;28;20034;-87
2021/12/23 05:16:43;;;;;;;4.77;3.33;;;;;;;0.18;0.00;60892.56;4812304;28;20270;-88
2021/12/23 05:19:21;;;;;;;5.93;3.78;;;;;;;0.15;0.00;60892.56;4820154;28;20289;-88
2021/12/23 05:22:00;;;;;;;6.30;3.75;;;;;;;-145.06;0.00;60892.56;4820276;28;20034;-89
2021/12/23 05:24:40;;;;;;;6.10;3.63;;;;;;;0.12;0.00;60892.56;4817980;28;20031;-88
2021/12/23 05:27:19;;;;;;;5.47;3.75;;;;;;;-145.06;0.00;60892.56;4816875;28;20034;-87
2021/12/23 05:29:58;;;;;;;4.97;3.25;;;;;;;-145.06;0.00;60892.56;4820186;28;20038;-88
2021/12/23 05:32:37;;;;;;;6.23;3.87;;;;;;;-145.06;0.00;60892.56;4818552;28;20058;-88
2021/12/23 05:35:18;;;;;;;;;;;;;;;0.10;0.00;60892.56;4820888;28;20305;-88
2021/12/23 05:37:57;;;;;;;6.43;3.45;;;;;;;187.52;0.00;60892.56;4816901;28;19918;-88
2021/12/23 05:40:37;;;;;;;5.55;4.05;;;;;;;-145.06;0.00;60892.56;4820020;28;20062;-87
2021/12/23 05:43:15;;;;;;;6.13;3.63;;;;;;;0.07;0.00;60892.56;4820911;28;20069;-87
2021/12/23 05:45:54;;;;;;;5.97;3.90;;;;;;;0.08;0.00;60892.56;4820555;28;20038;-88
2021/12/23 05:48:33;;;;;;;6.20;4.25;;;;;;;0.09;0.00;60892.56;4814194;28;20073;-89
2021/12/23 05:51:12;;;;;;;7.03;4.20;;;;;;;0.09;0.00;60892.56;4817651;28;20483;-89
2021/12/23 05:53:51;;;;;;;6.30;4.28;;;;;;;0.12;0.00;60892.56;4819112;28;20460;-89
2021/12/23 05:56:30;;;;;;;7.55;4.47;;;;;;;-145.06;0.00;60892.56;4809405;28;20026;-89
2021/12/23 05:59:10;;;;;;;6.25;4.13;;;;;;;0.29;0.00;60892.56;4817661;28;20030;-88
2021/12/23 06:01:49;;;;;;;7.60;4.23;;;;;;;-145.06;0.00;60892.56;4814512;28;20034;-88
2021/12/23 06:04:27;;;;;;;6.80;3.97;;;;;;;-145.06;0.00;60892.56;4813357;28;20270;-89
2021/12/23 06:07:06;;;;;;;5.40;3.92;;;;;;;-145.06;0.00;60892.56;4811934;28;20035;-88
2021/12/23 06:09:45;;;;;;;6.05;3.88;;;;;;;-145.06;0.00;60892.56;4816730;28;20074;-88
2021/12/23 06:12:26;;;;;;;5.70;4.13;;;;;;;-145.06;0.00;60892.56;4825990;28;20049;-89
2021/12/23 06:15:06;;;;;;;5.88;3.60;;;;;;;-145.06;0.00;60892.56;4800722;28;20617;-88
2021/12/23 06:17:45;;;;;;;6.18;3.75;;;;;;;-145.06;0.00;60892.56;4809844;28;20038;-88
2021/12/23 06:20:24;;;;;;;6.80;4.20;;;;;;;-145.06;0.00;60892.56;4812314;28;20125;-87
2021/12/23 06:23:04;;;;;;;5.53;4.00;;;;;;;-145.06;0.00;60892.56;4819338;28;20471;-86
2021/12/23 06:25:43;;;;;;;6.00;3.65;;;;;;;-145.06;0.00;60892.56;4811524;28;20034;-89
2021/12/23 06:28:22;;;;;;;5.53;3.90;;;;;;;187.52;0.00;60892.56;4821180;28;20030;-87
2021/12/23 06:31:00;;;;;;;5.77;3.60;;;;;;;-145.06;0.00;60892.56;4814526;28;20042;-88
2021/12/23 06:33:40;;;;;;;4.75;3.35;;;;;;;-145.06;0.00;60892.56;4816708;28;20440;-88
2021/12/23 06:36:19;;;;;;;5.68;3.78;;;;;;;-145.06;0.00;60892.56;4814311;28;20039;-87
2021/12/23 06:38:58;;;;;;;5.37;3.57;;;;;;;-145.06;0.00;60892.56;4815628;28;20043;-88
2021/12/23 06:41:37;;;;;;;4.65;3.13;;;;;;;-145.06;0.00;60892.56;4817922;28;20374;-89
2021/12/23 06:44:16;;;;;;;4.77;3.40;;;;;;;-145.06;0.00;60892.56;4818331;28;20034;-88
2021/12/23 06:46:55;;;;;;;5.75;3.30;;;;;;;-145.06;0.00;60892.56;4819089;28;20528;-89
2021/12/23 06:49:34;;;;;;;4.73;3.40;;;;;;;-145.06;0.00;60892.56;4820278;28;20058;-89
2021/12/23 06:52:14;;;;;;;4.57;3.28;;;;;;;-145.06;0.00;60892.56;4819162;28;20065;-88
2021/12/23 06:54:54;;;;;;;5.85;3.30;;;;;;;-145.06;0.00;60892.56;4812888;28;20034;-89
2021/12/23 06:57:34;;;;;;;4.97;3.22;;;;;;;-145.06;0.00;60892.56;4817897;28;20038;-89
2021/12/23 07:00:15;;;;;;;5.00;3.50;;;;;;;-145.06;0.00;60892.56;4814131;28;20030;-89
2021/12/23 07:02:56;;;;;;;6.68;3.63;;;;;;;-145.06;0.00;60892.56;4814673;28;20042;-89
2021/12/23 07:05:35;;;;;;;;;;;;;;;-145.06;0.00;60892.56;4818832;28;20484;-89
2021/12/23 07:08:26;;;;;;;4.32;3.03;;;;;;;-145.06;0.00;60892.56;4832537;28;19914;-88
2021/12/23 07:11:05;;;;;;;4.65;3.25;;;;;;;-145.06;0.00;60892.56;4825639;28;20034;-88
2021/12/23 07:13:44;;;;;;;5.10;3.22;;;;;;;-145.06;0.00;60892.56;4811432;28;20054;-88
2021/12/23 07:16:24;;;;;;;5.68;3.88;;;;;;;-145.06;0.00;60892.56;4810673;28;20034;-90
2021/12/23 07:19:02;;;;;;;7.13;3.60;;;;;;;-145.06;0.00;60892.56;4809197;28;20476;-88
2021/12/23 07:21:41;;;;;;;5.47;3.83;;;;;;;-145.06;0.00;60892.56;4811178;28;20042;-89
2021/12/23 07:24:21;;;;;;;6.50;4.07;;;;;;;-145.06;0.00;60892.56;4812458;28;20117;-89
2021/12/23 07:27:00;;;;;;;6.60;4.32;;;;;;;-145.06;0.00;60892.56;4812633;28;20038;-88
2021/12/23 07:29:39;;;;;;;6.85;4.25;;;;;;;-145.06;0.00;60892.56;4809853;28;20034;-89
2021/12/23 07:32:18;;;;;;;7.00;4.30;;;;;;;-145.06;0.00;60892.56;4815443;28;20479;-89
2021/12/23 07:34:57;;;;;;;8.20;4.80;;;;;;;-145.06;0.00;60892.56;4817743;28;20038;-88
2021/12/23 07:37:36;;;;;;;7.93;4.65;;;;;;;-145.06;0.00;60892.56;4814628;28;20926;-89
2021/12/23 07:40:17;;;;;;;9.73;4.87;;;;;;;-145.06;0.00;60892.56;4807585;28;20050;-89
2021/12/23 07:43:08;;;;;;;8.77;5.03;;;;;;;-145.06;0.00;60892.56;4815863;28;20266;-89
2021/12/23 07:45:47;;;;;;;7.13;4.10;;;;;;;-145.06;0.00;60892.56;4813606;28;20033;-89
2021/12/23 07:48:26;;;;;;;6.45;3.75;;;;;;;-145.06;0.00;60892.56;4816817;28;20034;-89
2021/12/23 07:51:05;;;;;;;7.30;4.45;;;;;;;-145.06;0.00;60892.56;4811479;28;20624;-89
2021/12/23 07:53:44;;;;;;;8.33;4.20;;;;;;;-145.06;0.00;60892.56;4817244;28;20030;-88
2021/12/23 07:56:24;;;;;;;7.22;4.47;;;;;;;-145.06;0.00;60892.56;4821015;28;20269;-89
2021/12/23 07:59:03;;;;;;;6.90;4.60;;;;;;;-145.06;0.00;60892.56;4815329;28;20030;-90
2021/12/23 08:01:42;;;;;;;8.00;4.90;;;;;;;-145.06;0.00;60892.56;4815071;28;20034;-88
2021/12/23 08:04:21;;;;;;;7.30;4.50;;;;;;;-145.06;0.00;60892.56;4816008;28;20393;-89
2021/12/23 08:07:02;;;;;;;6.47;4.07;;;;;;;-145.06;0.00;60892.56;4813415;28;20104;-88
2021/12/23 08:09:41;;;;;;;6.63;4.55;;;;;;;-145.06;0.00;60892.56;4800694;28;20074;-89
2021/12/23 08:12:20;;;;;;;7.77;4.33;;;;;;;-145.06;0.00;60892.56;4812859;28;20034;-89
2021/12/23 08:14:59;;;;;;;7.07;4.50;;;;;;;-145.06;0.00;60892.56;4817937;28;20053;-89
2021/12/23 08:17:38;;;;;;;6.63;4.55;;;;;;;-145.06;0.00;60892.56;4835694;28;20313;-89
2021/12/23 08:20:18;;;;;;;7.20;4.10;;;;;;;-145.06;0.00;60892.56;4815979;28;20030;-88
2021/12/23 08:22:57;;;;;;;8.32;4.60;;;;;;;-145.06;0.00;60892.56;4809823;28;20449;-89
2021/12/23 08:25:37;;;;;;;7.07;4.50;;;;;;;-145.06;0.00;60892.56;4808279;28;20038;-88
2021/12/23 08:28:16;;;;;;;6.82;4.20;;;;;;;-145.06;0.00;60892.56;4809219;28;21142;-88
2021/12/23 08:30:56;;;;;;;7.30;4.20;;;;;;;-145.06;0.00;60892.56;4814978;28;20643;-90
2021/12/23 08:33:35;;;;;;;5.80;3.92;;;;;;;-145.06;0.00;60892.56;4823702;28;20034;-88
2021/12/23 08:36:14;;;;;;;6.72;3.95;;;;;;;-145.06;0.00;60892.56;4814229;28;20389;-89
2021/12/23 08:38:53;;;;;;;7.28;4.43;;;;;;;1.59;0.00;60892.56;4820684;28;20046;-88
2021/12/23 08:41:32;;;;;;;7.05;4.50;;;;;;;-145.06;0.00;60892.56;4809157;28;20031;-88
2021/12/23 08:44:11;;;;;;;5.32;3.72;;;;;;;-145.06;0.00;60892.56;4816009;28;20503;-88
2021/12/23 08:46:50;;;;;;;6.00;3.58;;;;;;;21.08;0.00;60892.56;4814816;28;20031;-90
2021/12/23 08:49:29;;;;;;;5.65;3.63;;;;;;;187.52;0.00;60892.56;4818284;28;20365;-89
2021/12/23 08:52:09;;;;;;;6.70;4.03;;;;;;;5.49;0.00;60892.56;4819047;28;20034;-88
2021/12/23 08:54:48;;;;;;;5.13;3.40;;;;;;;5.49;0.00;60892.56;4810236;28;20265;-89
2021/12/23 08:57:27;;;;;;;5.83;3.60;;;;;;;-145.06;0.00;60892.56;4812871;28;20672;-88
2021/12/23 09:00:10;;;;;;;4.93;3.20;;;;;;;-145.06;0.00;60892.56;4819811;28;20265;-88
2021/12/23 09:02:50;;;;;;;6.68;3.50;;;;;;;-145.06;0.00;60892.56;4810696;28;20050;-88
2021/12/23 09:05:29;;;;;;;5.68;3.55;;;;;;;-145.06;0.00;60892.56;4808753;28;20034;-89
2021/12/23 09:08:09;;;;;;;6.10;3.67;;;;;;;-145.06;0.00;60892.56;4813231;28;20035;-90
2021/12/23 09:10:48;;;;;;;13.25;6.45;;;;;;;-145.06;0.00;60892.56;4810989;28;20038;-89
2021/12/23 09:13:28;;;;;;;16.40;7.07;;;;;;;-145.06;0.00;60892.56;4811941;28;20045;-90
2021/12/23 09:16:08;;;;;;;21.88;9.68;;;;;;;-145.06;0.00;60892.56;4810234;28;20389;-89
2021/12/23 09:18:47;;;;;;;21.17;9.43;;;;;;;-145.06;0.00;60892.56;4811279;28;20034;-89
2021/12/23 09:21:26;;;;;;;22.48;9.82;;;;;;;-145.06;0.00;60892.56;4815201;28;20042;-88
2021/12/23 09:24:06;;;;;;;19.00;8.93;;;;;;;-145.06;0.00;60892.56;4812451;28;20480;-88
2021/12/23 09:26:52;;;;;;;18.15;8.30;;;;;;;-145.06;0.00;60892.56;4812789;28;20042;-90
2021/12/23 09:35:24;;;;;;;19.08;8.68;;;;;;;-145.06;0.00;60892.56;4812347;28;20042;-90
2021/12/23 09:38:04;;;;;;;16.50;8.02;;;;;;;-145.06;0.00;60892.56;4814923;28;20038;-88
2021/12/23 09:40:43;;;;;;;20.73;9.18;;;;;;;-145.06;0.00;60892.56;4814495;28;20425;-89
2021/12/23 09:43:26;;;;;;;16.10;8.07;;;;;;;-145.06;0.00;60892.56;4811858;28;20133;-91
2021/12/23 09:46:08;;;;;;;11.68;6.25;;;;;;;-145.06;0.00;60892.56;4814642;28;20269;-89
2021/12/23 09:48:48;;;;;;;12.52;6.38;;;;;;;-145.06;0.00;60892.56;4808294;28;20469;-88
2021/12/23 09:51:29;;;;;;;11.50;5.57;;;;;;;-145.06;0.00;60892.56;4811638;28;20057;-88
2021/12/23 09:54:09;;;;;;;10.05;6.05;;;;;;;-145.06;0.00;60892.56;4810792;28;20070;-89
2021/12/23 09:56:48;;;;;;;9.25;5.22;;;;;;;-145.06;0.00;60892.56;4800976;28;20041;-89
2021/12/23 09:59:28;;;;;;;10.70;5.77;;;;;;;-145.06;0.00;60892.56;4807246;28;20138;-88
2021/12/23 10:02:07;;;;;;;10.23;5.50;;;;;;;-145.06;0.00;60892.56;4813289;28;20274;-88
2021/12/23 10:04:46;;;;;;;12.77;5.75;;;;;;;-145.06;0.00;60892.56;4807489;28;20034;-89
2021/12/23 10:07:25;;;;;;;10.85;5.72;;;;;;;2.63;0.00;60892.56;4813108;28;20400;-89
2021/12/23 10:10:11;;;;;;;8.80;5.10;;;;;;;-145.06;0.00;60892.56;4813878;28;20488;-88
2021/12/23 10:31:05;;;;;;;9.65;5.88;;;;;;;-145.06;0.00;60892.56;4821417;28;20038;-88
2021/12/23 10:37:03;;;;;;;7.00;4.35;;;;;;;-145.06;0.00;60892.56;4810194;28;20454;-89
2021/12/23 10:37:15;;;;;;;7.90;4.10;;;;;;;10.68;0.00;60892.56;4810411;28;20026;-89
2021/12/23 10:40:03;;;;;;;6.30;4.53;;;;;;;-145.06;0.00;60892.56;4809679;28;20484;-89
2021/12/23 10:42:49;;;;;;;6.82;4.10;;;;;;;-145.06;0.00;60892.56;4822145;28;20475;-89
2021/12/23 10:45:42;;;;;;;6.60;4.18;;;;;;;-145.06;0.00;60892.56;4810505;28;20034;-88
2021/12/23 10:48:25;;;;;;;6.22;4.22;;;;;;;-145.06;0.00;60892.56;4810374;28;20027;-89
2021/12/23 10:51:09;;;;;;;7.03;3.90;;;;;;;-145.06;0.00;60892.56;4807722;28;20034;-87
2021/12/23 10:54:14;;;;;;;7.72;3.75;;;;;;;-145.06;0.00;60892.56;4809916;28;20453;-89
2021/12/23 10:59:51;;;;;;;5.75;3.58;;;;;;;-145.06;0.00;60892.56;4810387;28;20777;-89
2021/12/23 11:02:36;;;;;;;7.43;4.22;;;;;;;-145.06;0.00;60892.56;4808835;28;20034;-89
2021/12/23 11:05:24;;;;;;;7.85;3.42;;;;;;;-145.06;0.00;60892.56;4812554;28;20133;-88
2021/12/23 11:30:05;;;;;;;3.65;2.55;;;;;;;-145.06;0.00;60892.56;4809009;28;19948;-89
2021/12/23 11:37:49;;;;;;;5.45;3.25;;;;;;;4.09;0.00;60892.56;4807911;28;20073;-88
2021/12/23 11:41:05;;;;;;;7.38;3.50;;;;;;;4.12;0.00;60892.56;4811116;28;20781;-89
2021/12/23 11:43:51;;;;;;;5.43;3.65;;;;;;;-145.06;0.00;60892.56;4812807;28;20034;-89
2021/12/23 11:46:51;;;;;;;5.13;3.35;;;;;;;-145.06;0.00;60892.56;4807528;28;20428;-87
2021/12/23 11:49:30;;;;;;;5.93;3.80;;;;;;;-145.06;0.00;60892.56;4811912;28;20323;-88
2021/12/23 11:52:10;;;;;;;6.28;3.72;;;;;;;-145.06;0.00;60892.56;4805954;28;20038;-90
2021/12/23 11:54:49;;;;;;;5.65;3.42;;;;;;;5.49;0.00;60892.56;4812988;28;20037;-89
2021/12/23 11:57:35;;;;;;;6.43;3.92;;;;;;;-145.06;0.00;60892.56;4812120;28;20042;-88
2021/12/23 12:00:32;;;;;;;7.53;3.80;;;;;;;-145.06;0.00;60892.56;4810401;28;20034;-89
2021/12/23 12:03:12;;;;;;;6.53;3.72;;;;;;;-145.06;0.00;60892.56;4810417;28;20121;-89
2021/12/23 12:05:51;;;;;;;6.00;4.00;;;;;;;-145.06;0.00;60892.56;4807190;28;20626;-88
2021/12/23 12:08:30;;;;;;;5.38;3.30;;;;;;;10.68;0.00;60892.56;4810752;28;20034;-89
2021/12/23 12:11:21;;;;;;;10.43;3.97;;;;;;;10.68;0.00;60892.56;4808992;28;20389;-88
2021/12/23 12:14:00;;;;;;;5.75;3.63;;;;;;;-145.06;0.00;60892.56;4808702;28;20030;-88
2021/12/23 12:16:39;;;;;;;6.95;3.95;;;;;;;-145.06;0.00;60892.56;4805252;28;20065;-88
2021/12/23 12:19:57;;;;;;;5.07;3.27;;;;;;;-145.06;0.00;60892.56;4809483;28;20039;-89
2021/12/23 12:22:47;;;;;;;6.53;3.90;;;;;;;-145.06;0.00;60892.56;4821547;28;20664;-89
2021/12/23 12:25:26;;;;;;;6.75;3.88;;;;;;;-145.06;0.00;60892.56;4816658;28;20054;-89
2021/12/23 12:28:05;;;;;;;6.13;4.00;;;;;;;-145.06;0.00;60892.56;4810587;28;20493;-89
2021/12/23 12:30:56;;;;;;;7.73;4.03;;;;;;;-145.06;0.00;60892.56;4844623;28;20030;-89
2021/12/23 12:33:39;;;;;;;5.80;3.47;;;;;;;-145.06;0.00;60892.56;4821375;28;20038;-89
2021/12/23 12:36:18;;;;;;;5.85;3.83;;;;;;;-145.06;0.00;60892.56;4807130;28;20385;-88
2021/12/23 12:38:57;;;;;;;5.75;3.67;;;;;;;-145.06;0.00;60892.56;4808925;28;20436;-89
2021/12/23 12:41:38;;;;;;;6.13;4.10;;;;;;;-145.06;0.00;60892.56;4848408;28;20547;-88
2021/12/23 12:47:15;;;;;;;6.95;4.55;;;;;;;-145.06;0.00;60892.56;4816584;28;20026;-89
2021/12/23 12:50:14;;;;;;;7.72;4.38;;;;;;;187.52;0.00;60892.56;4820249;28;20039;-88
2021/12/23 12:53:00;;;;;;;5.70;3.78;;;;;;;-145.06;0.00;60892.56;4820180;28;20038;-88
2021/12/23 12:55:39;;;;;;;6.05;4.10;;;;;;;5.18;0.00;60892.56;4820156;28;20023;-89
2021/12/23 12:58:37;;;;;;;6.53;4.20;;;;;;;-145.06;0.00;60892.56;4820275;28;20537;-88
2021/12/23 13:01:37;;;;;;;7.88;3.60;;;;;;;5.27;0.00;60892.56;4809999;28;20038;-88
2021/12/23 13:04:32;;;;;;;6.70;3.58;;;;;;;-145.06;0.00;60892.56;4817757;28;20062;-89
2021/12/23 13:07:13;;;;;;;5.15;3.38;;;;;;;-145.06;0.00;60892.56;4820347;28;20026;-88
2021/12/23 13:10:00;;;;;;;5.35;3.72;;;;;;;-145.06;0.00;60892.56;4831734;28;20042;-88
2021/12/23 13:12:48;;;;;;;7.05;3.97;;;;;;;-145.06;0.00;60892.56;4820169;28;20038;-89
2021/12/23 13:15:35;;;;;;;5.63;3.60;;;;;;;-145.06;0.00;60892.56;4821042;28;20595;-88
2021/12/23 13:18:21;;;;;;;7.25;3.80;;;;;;;-145.06;0.00;60892.56;4820645;28;20109;-89
2021/12/23 13:21:05;;;;;;;6.22;3.85;;;;;;;5.48;0.00;60892.56;4820738;28;20050;-88
2021/12/23 13:23:46;;;;;;;5.80;3.45;;;;;;;6.14;0.00;60892.56;4819809;28;20121;-90
2021/12/23 13:26:25;;;;;;;5.93;3.63;;;;;;;-145.06;0.00;60892.56;4820520;28;20038;-89
2021/12/23 13:29:07;;;;;;;5.90;4.00;;;;;;;-145.06;0.00;60892.56;4813342;28;20065;-89
2021/12/23 13:31:46;;;;;;;5.78;3.58;;;;;;;6.14;0.00;60892.56;4816570;28;20030;-89
2021/12/23 13:34:29;;;;;;;5.47;3.58;;;;;;;5.61;0.00;60892.56;4819800;28;20030;-90
2021/12/23 13:37:08;;;;;;;5.68;3.20;;;;;;;6.79;0.00;60892.56;4818107;28;20050;-88